sensor_id;sensor_type;location;lat;lon;timestamp;pressure;altitude;pressure_sealevel;temperature;humidity
75543;BME280;64129;53.508;10.476;2023-05-28T00:00:43;101745.22;;;11.28;79.34
75543;BME280;64129;53.508;10.476;2023-05-28T00:03:12;101745.19;;;11.29;79.09
75543;BME280;64129;53.508;10.476;2023-05-28T00:05:43;101739.19;;;11.12;79.51
75543;BME280;64129;53.508;10.476;2023-05-28T00:08:11;101737.38;;;11.14;79.75
75543;BME280;64129;53.508;10.476;2023-05-28T00:10:37;101733.84;;;11.09;79.93
75543;BME280;64129;53.508;10.476;2023-05-28T00:13:04;101732.13;;;11.05;79.35
75543;BME280;64129;53.508;10.476;2023-05-28T00:15:30;101739.41;;;10.84;80.37
75543;BME280;64129;53.508;10.476;2023-05-28T00:17:57;101727.78;;;10.96;79.92
75543;BME280;64129;53.508;10.476;2023-05-28T00:20:24;101725.16;;;10.94;80.05
75543;BME280;64129;53.508;10.476;2023-05-28T00:22:51;101726.16;;;10.81;80.04
75543;BME280;64129;53.508;10.476;2023-05-28T00:25:18;101726.94;;;10.92;79.88
75543;BME280;64129;53.508;10.476;2023-05-28T00:27:44;101727.88;;;10.87;79.88
75543;BME280;64129;53.508;10.476;2023-05-28T00:30:11;101731.44;;;10.84;79.89
75543;BME280;64129;53.508;10.476;2023-05-28T00:32:38;101727.91;;;10.84;79.66
75543;BME280;64129;53.508;10.476;2023-05-28T00:35:04;101723.59;;;10.68;79.60
75543;BME280;64129;53.508;10.476;2023-05-28T00:37:31;101732.44;;;10.71;80.28
75543;BME280;64129;53.508;10.476;2023-05-28T00:39:58;101728.00;;;10.72;79.87
75543;BME280;64129;53.508;10.476;2023-05-28T00:42:24;101734.16;;;10.78;80.23
75543;BME280;64129;53.508;10.476;2023-05-28T00:44:51;101735.97;;;10.76;80.27
75543;BME280;64129;53.508;10.476;2023-05-28T00:47:18;101730.72;;;10.62;80.86
75543;BME280;64129;53.508;10.476;2023-05-28T00:49:44;101730.72;;;10.64;80.62
75543;BME280;64129;53.508;10.476;2023-05-28T00:52:15;101735.09;;;10.71;80.33
75543;BME280;64129;53.508;10.476;2023-05-28T00:54:41;101729.78;;;10.68;80.55
75543;BME280;64129;53.508;10.476;2023-05-28T00:57:08;101726.19;;;10.74;80.26
75543;BME280;64129;53.508;10.476;2023-05-28T00:59:35;101725.31;;;10.73;80.21
75543;BME280;64129;53.508;10.476;2023-05-28T01:02:02;101721.81;;;10.68;79.94
75543;BME280;64129;53.508;10.476;2023-05-28T01:04:29;101728.97;;;10.60;79.99
75543;BME280;64129;53.508;10.476;2023-05-28T01:06:59;101713.00;;;10.66;80.09
75543;BME280;64129;53.508;10.476;2023-05-28T01:09:26;101722.00;;;10.50;80.55
75543;BME280;64129;53.508;10.476;2023-05-28T01:11:54;101714.84;;;10.58;80.31
75543;BME280;64129;53.508;10.476;2023-05-28T01:14:22;101713.19;;;10.42;80.57
75543;BME280;64129;53.508;10.476;2023-05-28T01:16:49;101716.69;;;10.47;80.29
75543;BME280;64129;53.508;10.476;2023-05-28T01:19:17;101720.38;;;10.24;81.75
75543;BME280;64129;53.508;10.476;2023-05-28T01:21:46;101719.44;;;10.35;81.32
75543;BME280;64129;53.508;10.476;2023-05-28T01:24:14;101722.16;;;10.25;81.66
75543;BME280;64129;53.508;10.476;2023-05-28T01:26:43;101719.53;;;10.22;81.81
75543;BME280;64129;53.508;10.476;2023-05-28T01:29:15;101714.16;;;10.28;80.97
75543;BME280;64129;53.508;10.476;2023-05-28T01:31:43;101715.06;;;10.26;79.96
75543;BME280;64129;53.508;10.476;2023-05-28T01:34:10;101714.31;;;9.98;81.18
75543;BME280;64129;53.508;10.476;2023-05-28T01:36:43;101716.09;;;9.96;81.47
75543;BME280;64129;53.508;10.476;2023-05-28T01:39:14;101712.50;;;10.09;81.09
75543;BME280;64129;53.508;10.476;2023-05-28T01:41:43;101715.16;;;10.06;80.85
75543;BME280;64129;53.508;10.476;2023-05-28T01:44:13;101706.38;;;9.92;81.36
75543;BME280;64129;53.508;10.476;2023-05-28T01:46:43;101709.94;;;9.91;80.88
75543;BME280;64129;53.508;10.476;2023-05-28T01:49:11;101708.16;;;9.90;80.97
75543;BME280;64129;53.508;10.476;2023-05-28T01:51:39;101709.94;;;9.89;80.82
75543;BME280;64129;53.508;10.476;2023-05-28T01:54:05;101706.41;;;9.89;80.17
75543;BME280;64129;53.508;10.476;2023-05-28T01:56:32;101696.72;;;9.83;80.68
75543;BME280;64129;53.508;10.476;2023-05-28T01:58:59;101701.19;;;9.70;80.78
75543;BME280;64129;53.508;10.476;2023-05-28T02:01:31;101700.31;;;9.67;80.54
75543;BME280;64129;53.508;10.476;2023-05-28T02:04:02;101695.00;;;9.72;80.82
75543;BME280;64129;53.508;10.476;2023-05-28T02:06:31;101694.19;;;9.54;81.63
75543;BME280;64129;53.508;10.476;2023-05-28T02:08:58;101696.81;;;9.57;81.08
75543;BME280;64129;53.508;10.476;2023-05-28T02:11:25;101690.56;;;9.67;80.75
75543;BME280;64129;53.508;10.476;2023-05-28T02:13:54;101684.44;;;9.61;80.93
75543;BME280;64129;53.508;10.476;2023-05-28T02:16:21;101687.16;;;9.43;80.41
75543;BME280;64129;53.508;10.476;2023-05-28T02:18:51;101687.19;;;9.30;82.10
75543;BME280;64129;53.508;10.476;2023-05-28T02:21:20;101681.88;;;9.32;81.66
75543;BME280;64129;53.508;10.476;2023-05-28T02:23:48;101692.53;;;9.23;81.98
75543;BME280;64129;53.508;10.476;2023-05-28T02:26:16;101696.88;;;9.48;81.12
75543;BME280;64129;53.508;10.476;2023-05-28T02:28:44;101690.72;;;9.32;81.28
75543;BME280;64129;53.508;10.476;2023-05-28T02:31:11;101691.59;;;9.31;80.84
75543;BME280;64129;53.508;10.476;2023-05-28T02:33:39;101687.22;;;9.26;81.69
75543;BME280;64129;53.508;10.476;2023-05-28T02:36:06;101694.25;;;9.39;80.76
75543;BME280;64129;53.508;10.476;2023-05-28T02:38:34;101682.75;;;9.40;80.61
75543;BME280;64129;53.508;10.476;2023-05-28T02:41:02;101681.00;;;9.28;80.50
75543;BME280;64129;53.508;10.476;2023-05-28T02:43:29;101685.44;;;9.25;79.98
75543;BME280;64129;53.508;10.476;2023-05-28T02:45:56;101682.81;;;9.16;81.17
75543;BME280;64129;53.508;10.476;2023-05-28T02:48:23;101681.06;;;9.16;81.23
75543;BME280;64129;53.508;10.476;2023-05-28T02:50:51;101687.25;;;9.11;81.73
75543;BME280;64129;53.508;10.476;2023-05-28T02:53:35;101687.25;;;8.98;81.81
75543;BME280;64129;53.508;10.476;2023-05-28T02:56:02;101684.63;;;9.09;81.56
75543;BME280;64129;53.508;10.476;2023-05-28T02:58:31;101686.41;;;9.05;81.32
75543;BME280;64129;53.508;10.476;2023-05-28T03:00:58;101692.56;;;8.95;82.02
75543;BME280;64129;53.508;10.476;2023-05-28T03:03:25;101689.94;;;9.04;81.73
75543;BME280;64129;53.508;10.476;2023-05-28T03:05:52;101688.16;;;9.05;81.95
75543;BME280;64129;53.508;10.476;2023-05-28T03:08:19;101692.56;;;8.98;81.18
75543;BME280;64129;53.508;10.476;2023-05-28T03:10:46;101692.56;;;8.97;81.86
75543;BME280;64129;53.508;10.476;2023-05-28T03:13:13;101696.13;;;8.88;81.59
75543;BME280;64129;53.508;10.476;2023-05-28T03:15:40;101698.75;;;8.94;81.79
75543;BME280;64129;53.508;10.476;2023-05-28T03:18:07;101694.34;;;9.05;81.83
75543;BME280;64129;53.508;10.476;2023-05-28T03:20:36;101689.03;;;9.05;81.09
75543;BME280;64129;53.508;10.476;2023-05-28T03:23:03;101685.50;;;8.91;82.16
75543;BME280;64129;53.508;10.476;2023-05-28T03:25:36;101690.81;;;8.87;82.55
75543;BME280;64129;53.508;10.476;2023-05-28T03:28:03;101689.09;;;8.75;82.90
75543;BME280;64129;53.508;10.476;2023-05-28T03:30:44;101697.91;;;8.77;82.94
75543;BME280;64129;53.508;10.476;2023-05-28T03:33:11;101695.22;;;8.92;82.71
75543;BME280;64129;53.508;10.476;2023-05-28T03:35:37;101687.28;;;8.86;82.85
75543;BME280;64129;53.508;10.476;2023-05-28T03:38:04;101697.00;;;8.95;82.30
75543;BME280;64129;53.508;10.476;2023-05-28T03:40:31;101692.56;;;9.01;81.78
75543;BME280;64129;53.508;10.476;2023-05-28T03:42:57;101698.75;;;8.94;82.36
75543;BME280;64129;53.508;10.476;2023-05-28T03:45:25;101692.56;;;8.95;82.31
75543;BME280;64129;53.508;10.476;2023-05-28T03:47:52;101684.63;;;8.94;82.42
75543;BME280;64129;53.508;10.476;2023-05-28T03:50:19;101692.56;;;9.04;82.72
75543;BME280;64129;53.508;10.476;2023-05-28T03:52:46;101685.53;;;9.03;82.98
75543;BME280;64129;53.508;10.476;2023-05-28T03:55:13;101688.16;;;9.10;82.96
75543;BME280;64129;53.508;10.476;2023-05-28T03:57:41;101681.09;;;9.09;82.57
75543;BME280;64129;53.508;10.476;2023-05-28T04:00:08;101675.78;;;9.07;82.69
75543;BME280;64129;53.508;10.476;2023-05-28T04:02:42;101680.16;;;9.22;82.06
75543;BME280;64129;53.508;10.476;2023-05-28T04:05:08;101688.13;;;9.20;83.24
75543;BME280;64129;53.508;10.476;2023-05-28T04:07:35;101684.56;;;9.24;83.93
75543;BME280;64129;53.508;10.476;2023-05-28T04:10:01;101682.84;;;9.11;83.92
75543;BME280;64129;53.508;10.476;2023-05-28T04:12:28;101681.91;;;9.24;83.69
75543;BME280;64129;53.508;10.476;2023-05-28T04:14:55;101676.56;;;9.32;83.72
75543;BME280;64129;53.508;10.476;2023-05-28T04:17:22;101673.03;;;9.36;83.44
75543;BME280;64129;53.508;10.476;2023-05-28T04:19:48;101676.53;;;9.50;82.92
75543;BME280;64129;53.508;10.476;2023-05-28T04:22:17;101677.41;;;9.54;82.65
75543;BME280;64129;53.508;10.476;2023-05-28T04:24:44;101680.88;;;9.63;82.70
75543;BME280;64129;53.508;10.476;2023-05-28T04:27:14;101683.50;;;9.69;83.12
75543;BME280;64129;53.508;10.476;2023-05-28T04:29:41;101682.63;;;9.74;83.07
75543;BME280;64129;53.508;10.476;2023-05-28T04:32:10;101689.69;;;9.70;83.72
75543;BME280;64129;53.508;10.476;2023-05-28T04:34:38;101693.22;;;9.74;83.57
75543;BME280;64129;53.508;10.476;2023-05-28T04:37:06;101690.53;;;9.83;83.68
75543;BME280;64129;53.508;10.476;2023-05-28T04:39:34;101689.59;;;9.88;84.08
75543;BME280;64129;53.508;10.476;2023-05-28T04:42:00;101693.19;;;9.83;84.47
75543;BME280;64129;53.508;10.476;2023-05-28T04:44:31;101690.56;;;9.77;84.80
75543;BME280;64129;53.508;10.476;2023-05-28T04:47:01;101694.00;;;9.94;84.09
75543;BME280;64129;53.508;10.476;2023-05-28T04:49:30;101694.06;;;9.82;85.81
75543;BME280;64129;53.508;10.476;2023-05-28T04:51:57;101696.69;;;9.88;86.34
75543;BME280;64129;53.508;10.476;2023-05-28T04:54:24;101701.06;;;9.92;86.17
75543;BME280;64129;53.508;10.476;2023-05-28T04:56:52;101705.44;;;10.02;86.31
75543;BME280;64129;53.508;10.476;2023-05-28T04:59:19;101700.06;;;10.16;85.64
75543;BME280;64129;53.508;10.476;2023-05-28T05:01:46;101697.44;;;10.11;86.66
75543;BME280;64129;53.508;10.476;2023-05-28T05:04:13;101698.28;;;10.16;86.52
75543;BME280;64129;53.508;10.476;2023-05-28T05:06:40;101698.19;;;10.33;85.97
75543;BME280;64129;53.508;10.476;2023-05-28T05:09:07;101693.66;;;10.49;85.21
75543;BME280;64129;53.508;10.476;2023-05-28T05:11:34;101692.75;;;10.53;84.14
75543;BME280;64129;53.508;10.476;2023-05-28T05:14:03;101691.78;;;10.60;84.04
75543;BME280;64129;53.508;10.476;2023-05-28T05:16:30;101689.06;;;10.69;83.90
75543;BME280;64129;53.508;10.476;2023-05-28T05:18:56;101688.97;;;10.80;83.47
75543;BME280;64129;53.508;10.476;2023-05-28T05:21:23;101693.34;;;10.85;83.15
75543;BME280;64129;53.508;10.476;2023-05-28T05:23:50;101681.75;;;10.94;82.99
75543;BME280;64129;53.508;10.476;2023-05-28T05:26:17;101681.63;;;11.05;81.10
75543;BME280;64129;53.508;10.476;2023-05-28T05:28:44;101685.97;;;11.15;82.04
75543;BME280;64129;53.508;10.476;2023-05-28T05:31:11;101682.41;;;11.16;80.04
75543;BME280;64129;53.508;10.476;2023-05-28T05:33:40;101692.88;;;11.31;81.71
75543;BME280;64129;53.508;10.476;2023-05-28T05:36:25;101683.09;;;11.33;82.42
75543;BME280;64129;53.508;10.476;2023-05-28T05:39:01;101690.06;;;11.43;82.46
75543;BME280;64129;53.508;10.476;2023-05-28T05:41:41;101693.47;;;11.56;80.54
75543;BME280;64129;53.508;10.476;2023-05-28T05:44:16;101693.47;;;11.56;81.07
75543;BME280;64129;53.508;10.476;2023-05-28T05:46:43;101692.38;;;11.71;80.13
75543;BME280;64129;53.508;10.476;2023-05-28T05:49:09;101690.53;;;11.80;79.71
75543;BME280;64129;53.508;10.476;2023-05-28T05:51:37;101684.91;;;12.00;78.78
75543;BME280;64129;53.508;10.476;2023-05-28T05:54:04;101692.88;;;12.02;78.68
75543;BME280;64129;53.508;10.476;2023-05-28T05:56:31;101687.59;;;12.00;78.86
75543;BME280;64129;53.508;10.476;2023-05-28T05:58:58;101682.84;;;12.21;78.38
75543;BME280;64129;53.508;10.476;2023-05-28T06:01:25;101684.53;;;12.26;74.52
75543;BME280;64129;53.508;10.476;2023-05-28T06:03:51;101684.31;;;12.40;78.82
75543;BME280;64129;53.508;10.476;2023-05-28T06:06:44;101688.44;;;12.59;73.51
75543;BME280;64129;53.508;10.476;2023-05-28T06:09:13;101682.09;;;12.66;76.48
75543;BME280;64129;53.508;10.476;2023-05-28T06:11:48;101683.34;;;12.98;77.47
75543;BME280;64129;53.508;10.476;2023-05-28T06:14:16;101690.38;;;13.02;76.72
75543;BME280;64129;53.508;10.476;2023-05-28T06:16:42;101674.16;;;13.12;72.14
75543;BME280;64129;53.508;10.476;2023-05-28T06:19:09;101681.84;;;13.31;72.24
75543;BME280;64129;53.508;10.476;2023-05-28T06:21:36;101677.84;;;13.53;69.36
75543;BME280;64129;53.508;10.476;2023-05-28T06:24:04;101678.31;;;13.72;72.93
75543;BME280;64129;53.508;10.476;2023-05-28T06:26:33;101687.72;;;13.91;70.85
75543;BME280;64129;53.508;10.476;2023-05-28T06:29:00;101680.78;;;14.20;71.25
75543;BME280;64129;53.508;10.476;2023-05-28T06:31:28;101678.63;;;14.37;71.10
75543;BME280;64129;53.508;10.476;2023-05-28T06:33:56;101679.09;;;14.54;69.03
75543;BME280;64129;53.508;10.476;2023-05-28T06:36:23;101677.91;;;14.68;66.21
75543;BME280;64129;53.508;10.476;2023-05-28T06:38:50;101670.06;;;14.94;66.35
75543;BME280;64129;53.508;10.476;2023-05-28T06:41:17;101658.75;;;14.83;69.19
75543;BME280;64129;53.508;10.476;2023-05-28T06:43:47;101678.56;;;14.76;72.23
75543;BME280;64129;53.508;10.476;2023-05-28T06:46:35;101673.50;;;14.99;70.63
75543;BME280;64129;53.508;10.476;2023-05-28T06:49:02;101674.13;;;15.09;72.69
75543;BME280;64129;53.508;10.476;2023-05-28T06:51:30;101678.44;;;15.14;70.40
75543;BME280;64129;53.508;10.476;2023-05-28T06:53:57;101685.63;;;15.12;73.44
75543;BME280;64129;53.508;10.476;2023-05-28T06:56:27;101679.16;;;15.52;70.08
75543;BME280;64129;53.508;10.476;2023-05-28T06:59:12;101695.13;;;15.55;70.44
75543;BME280;64129;53.508;10.476;2023-05-28T07:01:48;101695.94;;;15.57;67.78
75543;BME280;64129;53.508;10.476;2023-05-28T07:04:38;101696.47;;;15.71;68.27
75543;BME280;64129;53.508;10.476;2023-05-28T07:07:10;101697.84;;;15.84;68.52
75543;BME280;64129;53.508;10.476;2023-05-28T07:09:37;101697.22;;;16.06;67.97
75543;BME280;64129;53.508;10.476;2023-05-28T07:12:05;101708.00;;;16.32;66.89
75543;BME280;64129;53.508;10.476;2023-05-28T07:14:34;101707.03;;;16.35;65.67
75543;BME280;64129;53.508;10.476;2023-05-28T07:17:01;101703.78;;;16.51;66.28
75543;BME280;64129;53.508;10.476;2023-05-28T07:19:28;101707.81;;;16.38;67.86
75543;BME280;64129;53.508;10.476;2023-05-28T07:21:54;101720.34;;;16.38;67.89
75543;BME280;64129;53.508;10.476;2023-05-28T07:24:21;101710.19;;;16.19;68.18
75543;BME280;64129;53.508;10.476;2023-05-28T07:26:48;101709.59;;;16.10;68.42
75543;BME280;64129;53.508;10.476;2023-05-28T07:29:15;101723.06;;;16.36;70.62
75543;BME280;64129;53.508;10.476;2023-05-28T07:31:44;101716.28;;;16.52;68.69
75543;BME280;64129;53.508;10.476;2023-05-28T07:34:11;101724.94;;;16.34;66.37
75543;BME280;64129;53.508;10.476;2023-05-28T07:36:40;101719.81;;;16.25;66.34
75543;BME280;64129;53.508;10.476;2023-05-28T07:39:06;101721.97;;;16.14;66.07
75543;BME280;64129;53.508;10.476;2023-05-28T07:41:35;101722.97;;;16.39;65.91
75543;BME280;64129;53.508;10.476;2023-05-28T07:44:31;101729.47;;;16.59;67.94
75543;BME280;64129;53.508;10.476;2023-05-28T07:46:58;101722.66;;;16.48;64.73
75543;BME280;64129;53.508;10.476;2023-05-28T07:49:45;101726.41;;;16.72;65.06
75543;BME280;64129;53.508;10.476;2023-05-28T07:52:14;101728.16;;;16.98;65.11
75543;BME280;64129;53.508;10.476;2023-05-28T07:54:42;101723.19;;;16.88;64.76
75543;BME280;64129;53.508;10.476;2023-05-28T07:57:11;101722.63;;;17.04;67.21
75543;BME280;64129;53.508;10.476;2023-05-28T07:59:39;101718.34;;;17.24;67.18
75543;BME280;64129;53.508;10.476;2023-05-28T08:02:06;101723.81;;;17.21;62.47
75543;BME280;64129;53.508;10.476;2023-05-28T08:04:33;101722.34;;;16.86;62.24
75543;BME280;64129;53.508;10.476;2023-05-28T08:07:00;101724.88;;;16.90;63.20
75543;BME280;64129;53.508;10.476;2023-05-28T08:09:28;101722.50;;;17.07;62.67
75543;BME280;64129;53.508;10.476;2023-05-28T08:11:56;101714.94;;;17.19;62.77
75543;BME280;64129;53.508;10.476;2023-05-28T08:14:25;101721.31;;;17.16;64.26
75543;BME280;64129;53.508;10.476;2023-05-28T08:16:56;101711.75;;;17.57;64.24
75543;BME280;64129;53.508;10.476;2023-05-28T08:19:37;101718.34;;;17.49;63.87
75543;BME280;64129;53.508;10.476;2023-05-28T08:22:18;101724.25;;;17.58;62.11
75543;BME280;64129;53.508;10.476;2023-05-28T08:24:45;101717.47;;;17.73;61.82
75543;BME280;64129;53.508;10.476;2023-05-28T08:27:12;101718.47;;;17.94;61.23
75543;BME280;64129;53.508;10.476;2023-05-28T08:29:38;101723.59;;;18.23;60.13
75543;BME280;64129;53.508;10.476;2023-05-28T08:32:05;101718.72;;;18.55;60.00
75543;BME280;64129;53.508;10.476;2023-05-28T08:34:36;101717.91;;;18.96;57.52
75543;BME280;64129;53.508;10.476;2023-05-28T08:37:03;101721.13;;;18.84;58.24
75543;BME280;64129;53.508;10.476;2023-05-28T08:39:37;101723.56;;;18.47;57.36
75543;BME280;64129;53.508;10.476;2023-05-28T08:42:05;101716.63;;;18.63;56.49
75543;BME280;64129;53.508;10.476;2023-05-28T08:44:32;101718.84;;;18.95;56.30
75543;BME280;64129;53.508;10.476;2023-05-28T08:47:00;101714.34;;;19.37;55.12
75543;BME280;64129;53.508;10.476;2023-05-28T08:49:34;101720.22;;;19.46;53.95
75543;BME280;64129;53.508;10.476;2023-05-28T08:52:05;101706.44;;;19.52;54.07
75543;BME280;64129;53.508;10.476;2023-05-28T08:54:35;101709.38;;;19.87;55.24
75543;BME280;64129;53.508;10.476;2023-05-28T08:57:02;101710.19;;;19.89;54.35
75543;BME280;64129;53.508;10.476;2023-05-28T08:59:34;101709.63;;;19.62;54.21
75543;BME280;64129;53.508;10.476;2023-05-28T09:02:02;101703.38;;;20.37;54.07
75543;BME280;64129;53.508;10.476;2023-05-28T09:04:29;101702.69;;;20.52;53.62
75543;BME280;64129;53.508;10.476;2023-05-28T09:06:56;101705.38;;;20.69;53.22
75543;BME280;64129;53.508;10.476;2023-05-28T09:09:32;101711.78;;;20.85;53.35
75543;BME280;64129;53.508;10.476;2023-05-28T09:12:03;101701.06;;;21.36;51.55
75543;BME280;64129;53.508;10.476;2023-05-28T09:14:37;101712.41;;;21.08;50.86
75543;BME280;64129;53.508;10.476;2023-05-28T09:17:09;101705.50;;;21.02;51.46
75543;BME280;64129;53.508;10.476;2023-05-28T09:19:39;101697.31;;;21.56;50.43
75543;BME280;64129;53.508;10.476;2023-05-28T09:22:15;101692.78;;;21.72;48.88
75543;BME280;64129;53.508;10.476;2023-05-28T09:24:53;101697.53;;;21.84;48.16
75543;BME280;64129;53.508;10.476;2023-05-28T09:27:29;101690.88;;;21.74;47.86
75543;BME280;64129;53.508;10.476;2023-05-28T09:30:02;101693.28;;;21.96;48.78
75543;BME280;64129;53.508;10.476;2023-05-28T09:32:28;101697.13;;;21.92;46.75
75543;BME280;64129;53.508;10.476;2023-05-28T09:34:56;101697.75;;;22.13;46.26
75543;BME280;64129;53.508;10.476;2023-05-28T09:37:22;101697.41;;;22.50;46.59
75543;BME280;64129;53.508;10.476;2023-05-28T09:39:59;101696.34;;;22.53;44.67
75543;BME280;64129;53.508;10.476;2023-05-28T09:42:31;101693.22;;;23.06;44.18
75543;BME280;64129;53.508;10.476;2023-05-28T09:45:00;101684.50;;;23.15;41.97
75543;BME280;64129;53.508;10.476;2023-05-28T09:47:27;101688.03;;;22.71;44.97
75543;BME280;64129;53.508;10.476;2023-05-28T09:49:53;101680.94;;;23.73;43.41
75543;BME280;64129;53.508;10.476;2023-05-28T09:52:21;101691.78;;;23.73;44.09
75543;BME280;64129;53.508;10.476;2023-05-28T09:54:53;101678.03;;;23.62;44.27
75543;BME280;64129;53.508;10.476;2023-05-28T09:57:23;101678.34;;;24.13;44.20
75543;BME280;64129;53.508;10.476;2023-05-28T09:59:54;101679.56;;;23.94;41.95
75543;BME280;64129;53.508;10.476;2023-05-28T10:02:53;101676.56;;;24.40;41.33
75543;BME280;64129;53.508;10.476;2023-05-28T10:05:16;101668.41;;;24.40;40.82
75543;BME280;64129;53.508;10.476;2023-05-28T10:07:46;101669.41;;;24.39;40.48
75543;BME280;64129;53.508;10.476;2023-05-28T10:10:15;101670.66;;;24.61;40.85
75543;BME280;64129;53.508;10.476;2023-05-28T10:12:42;101672.97;;;24.67;39.30
75543;BME280;64129;53.508;10.476;2023-05-28T10:15:10;101663.97;;;24.66;38.98
75543;BME280;64129;53.508;10.476;2023-05-28T10:17:37;101664.25;;;24.62;39.21
75543;BME280;64129;53.508;10.476;2023-05-28T10:20:05;101670.06;;;25.09;40.55
75543;BME280;64129;53.508;10.476;2023-05-28T10:22:32;101654.84;;;24.80;36.16
75543;BME280;64129;53.508;10.476;2023-05-28T10:24:59;101669.69;;;23.79;38.42
75543;BME280;64129;53.508;10.476;2023-05-28T10:27:30;101672.41;;;23.21;39.16
75543;BME280;64129;53.508;10.476;2023-05-28T10:30:02;101666.56;;;23.85;38.15
75543;BME280;64129;53.508;10.476;2023-05-28T10:32:37;101661.19;;;24.53;37.88
75543;BME280;64129;53.508;10.476;2023-05-28T10:35:04;101657.91;;;24.88;36.25
75543;BME280;64129;53.508;10.476;2023-05-28T10:37:31;101654.19;;;25.16;35.35
75543;BME280;64129;53.508;10.476;2023-05-28T10:39:59;101651.69;;;25.51;35.88
75543;BME280;64129;53.508;10.476;2023-05-28T10:42:25;101658.47;;;26.31;35.44
75543;BME280;64129;53.508;10.476;2023-05-28T10:45:05;101653.97;;;25.32;35.64
75543;BME280;64129;53.508;10.476;2023-05-28T10:47:34;101656.31;;;26.00;32.30
75543;BME280;64129;53.508;10.476;2023-05-28T10:52:40;101634.22;;;26.76;30.75
75543;BME280;64129;53.508;10.476;2023-05-28T10:55:08;101639.28;;;27.04;32.50
75543;BME280;64129;53.508;10.476;2023-05-28T10:57:44;101637.34;;;27.29;32.45
75543;BME280;64129;53.508;10.476;2023-05-28T11:00:12;101652.66;;;24.99;34.16
75543;BME280;64129;53.508;10.476;2023-05-28T11:02:44;101661.06;;;24.55;35.76
75543;BME280;64129;53.508;10.476;2023-05-28T11:05:11;101662.81;;;24.96;36.34
75543;BME280;64129;53.508;10.476;2023-05-28T11:07:41;101669.50;;;24.23;38.02
75543;BME280;64129;53.508;10.476;2023-05-28T11:10:10;101677.25;;;23.74;39.33
75543;BME280;64129;53.508;10.476;2023-05-28T11:12:38;101663.84;;;24.00;37.26
75543;BME280;64129;53.508;10.476;2023-05-28T11:15:10;101664.59;;;23.45;38.66
75543;BME280;64129;53.508;10.476;2023-05-28T11:17:41;101666.56;;;23.57;40.10
75543;BME280;64129;53.508;10.476;2023-05-28T11:22:43;101667.03;;;23.49;40.05
75543;BME280;64129;53.508;10.476;2023-05-28T11:25:10;101662.34;;;25.29;38.80
75543;BME280;64129;53.508;10.476;2023-05-28T11:27:36;101645.69;;;25.46;33.22
75543;BME280;64129;53.508;10.476;2023-05-28T11:30:11;101657.00;;;25.65;36.90
75543;BME280;64129;53.508;10.476;2023-05-28T11:32:39;101639.22;;;26.34;33.55
75543;BME280;64129;53.508;10.476;2023-05-28T11:35:06;101631.53;;;26.87;33.00
75543;BME280;64129;53.508;10.476;2023-05-28T11:37:34;101628.66;;;27.13;33.40
75543;BME280;64129;53.508;10.476;2023-05-28T11:40:03;101626.88;;;27.00;32.63
75543;BME280;64129;53.508;10.476;2023-05-28T11:42:38;101625.03;;;26.42;33.17
75543;BME280;64129;53.508;10.476;2023-05-28T11:45:06;101643.97;;;25.19;34.95
75543;BME280;64129;53.508;10.476;2023-05-28T11:47:33;101639.97;;;24.85;36.17
75543;BME280;64129;53.508;10.476;2023-05-28T11:50:09;101639.53;;;24.25;36.91
75543;BME280;64129;53.508;10.476;2023-05-28T11:52:36;101640.50;;;24.38;37.54
75543;BME280;64129;53.508;10.476;2023-05-28T11:55:03;101630.34;;;24.13;36.23
75543;BME280;64129;53.508;10.476;2023-05-28T11:57:31;101636.50;;;24.03;36.98
75543;BME280;64129;53.508;10.476;2023-05-28T12:00:07;101644.25;;;24.09;37.84
75543;BME280;64129;53.508;10.476;2023-05-28T12:02:48;101642.34;;;23.40;37.50
75543;BME280;64129;53.508;10.476;2023-05-28T12:05:16;101636.81;;;24.25;37.30
75543;BME280;64129;53.508;10.476;2023-05-28T12:07:45;101631.94;;;24.84;36.29
75543;BME280;64129;53.508;10.476;2023-05-28T12:10:16;101614.44;;;26.14;32.79
75543;BME280;64129;53.508;10.476;2023-05-28T12:12:46;101614.84;;;26.20;32.45
75543;BME280;64129;53.508;10.476;2023-05-28T12:15:14;101600.00;;;27.07;30.22
75543;BME280;64129;53.508;10.476;2023-05-28T12:17:41;101606.09;;;26.28;32.59
75543;BME280;64129;53.508;10.476;2023-05-28T12:22:39;101585.94;;;28.01;30.02
75543;BME280;64129;53.508;10.476;2023-05-28T12:25:06;101592.16;;;27.02;31.16
75543;BME280;64129;53.508;10.476;2023-05-28T12:27:34;101602.28;;;26.89;32.78
75543;BME280;64129;53.508;10.476;2023-05-28T12:30:02;101623.72;;;25.49;35.47
75543;BME280;64129;53.508;10.476;2023-05-28T12:32:28;101623.66;;;24.73;36.12
75543;BME280;64129;53.508;10.476;2023-05-28T12:34:58;101626.03;;;24.65;36.76
75543;BME280;64129;53.508;10.476;2023-05-28T12:37:25;101620.72;;;24.36;36.99
75543;BME280;64129;53.508;10.476;2023-05-28T12:39:53;101611.34;;;24.13;35.02
75543;BME280;64129;53.508;10.476;2023-05-28T12:42:20;101616.31;;;25.76;34.45
75543;BME280;64129;53.508;10.476;2023-05-28T12:44:47;101591.91;;;27.06;31.97
75543;BME280;64129;53.508;10.476;2023-05-28T12:47:13;101577.19;;;27.53;29.78
75543;BME280;64129;53.508;10.476;2023-05-28T12:49:40;101580.81;;;27.64;28.53
75543;BME280;64129;53.508;10.476;2023-05-28T12:52:06;101574.47;;;27.53;29.00
75543;BME280;64129;53.508;10.476;2023-05-28T12:54:33;101567.91;;;27.78;28.97
75543;BME280;64129;53.508;10.476;2023-05-28T12:57:00;101575.34;;;27.09;29.49
75543;BME280;64129;53.508;10.476;2023-05-28T12:59:28;101589.63;;;26.88;31.14